createdAt,value
2019-05-25T00:00:48.335Z,10.03
2019-05-25T00:03:16.577Z,8.80
2019-05-25T00:05:44.776Z,7.27
2019-05-25T00:08:13.020Z,7.47
2019-05-25T00:10:41.228Z,7.53
2019-05-25T00:13:09.441Z,8.37
2019-05-25T00:15:37.664Z,7.60
2019-05-25T00:18:05.873Z,6.90
2019-05-25T00:20:34.188Z,7.27
2019-05-25T00:23:02.414Z,7.03
2019-05-25T00:25:30.623Z,7.90
2019-05-25T00:27:58.858Z,8.03
2019-05-25T00:30:27.068Z,7.30
2019-05-25T00:32:55.467Z,7.63
2019-05-25T00:35:23.681Z,8.47
2019-05-25T00:37:51.896Z,8.70
2019-05-25T00:40:20.124Z,7.83
2019-05-25T00:42:48.339Z,8.07
2019-05-25T00:45:16.640Z,8.70
2019-05-25T00:47:44.863Z,8.43
2019-05-25T00:50:13.144Z,7.47
2019-05-25T00:52:41.372Z,8.30
2019-05-25T00:55:09.660Z,7.63
2019-05-25T00:57:38.062Z,8.63
2019-05-25T01:00:06.849Z,8.13
2019-05-25T01:02:35.065Z,7.90
2019-05-25T01:05:03.694Z,7.70
2019-05-25T01:07:31.960Z,7.83
2019-05-25T01:10:00.195Z,8.30
2019-05-25T01:12:28.411Z,8.77
2019-05-25T01:14:56.623Z,8.23
2019-05-25T01:17:24.858Z,8.20
2019-05-25T01:19:53.075Z,8.83
2019-05-25T01:22:21.322Z,9.23
2019-05-25T01:24:49.559Z,8.50
2019-05-25T01:27:17.774Z,8.57
2019-05-25T01:29:46.006Z,8.80
2019-05-25T01:32:14.215Z,9.23
2019-05-25T01:34:42.459Z,8.37
2019-05-25T01:37:10.674Z,8.47
2019-05-25T01:39:38.900Z,9.17
2019-05-25T01:42:07.160Z,9.13
2019-05-25T01:44:35.392Z,9.53
2019-05-25T01:47:03.833Z,9.57
2019-05-25T01:49:32.057Z,12.13
2019-05-25T01:52:00.281Z,9.93
2019-05-25T01:54:28.533Z,10.10
2019-05-25T01:56:56.763Z,10.20
2019-05-25T01:59:25.051Z,9.17
2019-05-25T02:01:53.291Z,9.10
2019-05-25T02:04:21.583Z,9.37
2019-05-25T02:06:49.803Z,9.07
2019-05-25T02:09:18.036Z,9.73
2019-05-25T02:11:46.263Z,9.67
2019-05-25T02:14:14.475Z,9.57
2019-05-25T02:16:42.710Z,9.60
2019-05-25T02:19:11.019Z,9.13
2019-05-25T02:21:39.251Z,9.10
2019-05-25T02:24:07.477Z,10.10
2019-05-25T02:26:35.701Z,9.53
2019-05-25T02:29:04.304Z,10.10
2019-05-25T02:31:32.520Z,9.80
2019-05-25T02:34:00.768Z,9.83
2019-05-25T02:36:28.991Z,9.40
2019-05-25T02:38:57.214Z,9.47
2019-05-25T02:41:25.452Z,9.53
2019-05-25T02:43:53.673Z,9.23
2019-05-25T02:46:22.025Z,9.50
2019-05-25T02:48:50.236Z,10.03
2019-05-25T02:51:18.528Z,9.77
2019-05-25T02:53:46.771Z,9.57
2019-05-25T02:56:14.996Z,10.63
2019-05-25T02:58:43.254Z,9.40
2019-05-25T03:01:11.473Z,9.53
2019-05-25T03:03:39.861Z,9.50
2019-05-25T03:06:08.541Z,8.97
2019-05-25T03:08:37.346Z,8.63
2019-05-25T03:11:05.765Z,10.23
2019-05-25T03:13:33.980Z,9.40
2019-05-25T03:16:02.203Z,8.90
2019-05-25T03:18:30.435Z,10.20
2019-05-25T03:20:58.997Z,10.20
2019-05-25T03:23:27.229Z,9.60
2019-05-25T03:25:55.446Z,9.90
2019-05-25T03:28:23.667Z,9.23
2019-05-25T03:30:51.902Z,10.07
2019-05-25T03:33:20.126Z,9.77
2019-05-25T03:35:48.788Z,10.73
2019-05-25T03:38:16.991Z,10.57
2019-05-25T03:40:45.206Z,9.60
2019-05-25T03:43:13.448Z,10.37
2019-05-25T03:45:41.664Z,10.17
2019-05-25T03:48:09.903Z,9.80
2019-05-25T03:50:38.116Z,10.33
2019-05-25T03:53:06.352Z,9.67
2019-05-25T03:55:34.583Z,10.10
2019-05-25T03:58:02.827Z,10.50
2019-05-25T04:00:35.028Z,10.63
2019-05-25T04:03:03.596Z,10.30
2019-05-25T04:05:31.829Z,9.40
2019-05-25T04:08:00.216Z,9.17
2019-05-25T04:10:28.528Z,9.80
2019-05-25T04:12:56.911Z,9.20
2019-05-25T04:15:25.148Z,9.53
2019-05-25T04:17:53.358Z,8.80
2019-05-25T04:20:21.729Z,9.97
2019-05-25T04:22:49.969Z,9.43
2019-05-25T04:25:18.188Z,9.87
2019-05-25T04:27:46.423Z,9.63
2019-05-25T04:30:14.808Z,8.63
2019-05-25T04:32:43.042Z,8.33
2019-05-25T04:35:11.349Z,9.10
2019-05-25T04:37:39.632Z,8.70
2019-05-25T04:40:08.324Z,8.50
2019-05-25T04:42:36.631Z,8.07
2019-05-25T04:45:07.981Z,8.23
2019-05-25T04:47:36.236Z,8.73
2019-05-25T04:50:05.522Z,8.53
2019-05-25T04:52:33.736Z,7.57
2019-05-25T04:55:02.041Z,7.43
2019-05-25T04:57:30.247Z,9.13
2019-05-25T04:59:58.494Z,7.73
2019-05-25T05:02:26.792Z,8.80
2019-05-25T05:04:54.996Z,8.17
2019-05-25T05:07:23.226Z,8.20
2019-05-25T05:10:02.349Z,8.23
2019-05-25T05:12:21.569Z,8.23
2019-05-25T05:14:49.777Z,9.13
2019-05-25T05:17:18.000Z,7.97
2019-05-25T05:19:46.536Z,7.40
2019-05-25T05:22:14.756Z,7.50
2019-05-25T05:24:43.012Z,7.97
2019-05-25T05:27:11.231Z,8.23
2019-05-25T05:29:39.445Z,9.20
2019-05-25T05:32:07.699Z,8.30
2019-05-25T05:34:36.052Z,8.17
2019-05-25T05:37:04.352Z,8.10
2019-05-25T05:39:32.572Z,7.77
2019-05-25T05:42:02.427Z,7.13
2019-05-25T05:44:31.695Z,7.60
2019-05-25T05:47:01.511Z,7.80
2019-05-25T05:49:30.114Z,7.70
2019-05-25T05:51:59.863Z,7.53
2019-05-25T05:54:28.570Z,7.87
2019-05-25T05:57:11.166Z,8.20
2019-05-25T05:59:26.740Z,7.20
2019-05-25T06:01:54.978Z,6.77
2019-05-25T06:04:23.192Z,7.10
2019-05-25T06:06:51.428Z,6.87
2019-05-25T06:09:19.652Z,6.63
2019-05-25T06:11:47.934Z,6.90
2019-05-25T06:14:16.173Z,6.27
2019-05-25T06:16:44.399Z,7.20
2019-05-25T06:19:12.620Z,6.87
2019-05-25T06:21:40.978Z,6.07
2019-05-25T06:24:09.213Z,6.37
2019-05-25T06:26:37.454Z,7.20
2019-05-25T06:29:05.744Z,6.25
2019-05-25T06:31:33.999Z,6.20
2019-05-25T06:34:02.314Z,6.65
2019-05-25T06:36:30.529Z,7.40
2019-05-25T06:38:58.833Z,7.25
2019-05-25T06:41:27.039Z,6.47
2019-05-25T06:43:55.280Z,7.17
2019-05-25T06:46:23.479Z,7.45
2019-05-25T06:48:51.772Z,7.83
2019-05-25T06:51:20.084Z,7.30
2019-05-25T06:53:48.348Z,6.78
2019-05-25T06:56:16.583Z,7.25
2019-05-25T06:58:44.801Z,6.30
2019-05-25T07:01:13.035Z,7.15
2019-05-25T07:03:41.256Z,6.55
2019-05-25T07:06:09.491Z,7.25
2019-05-25T07:08:37.711Z,7.42
2019-05-25T07:11:06.040Z,7.25
2019-05-25T07:13:34.308Z,7.70
2019-05-25T07:16:02.836Z,7.15
2019-05-25T07:18:31.147Z,7.40
2019-05-25T07:20:59.352Z,7.03
2019-05-25T07:23:27.587Z,6.95
2019-05-25T07:25:55.939Z,7.30
2019-05-25T07:28:24.162Z,7.45
2019-05-25T07:30:52.452Z,6.97
2019-05-25T07:33:20.696Z,7.35
2019-05-25T07:35:48.911Z,6.72
2019-05-25T07:38:17.147Z,7.47
2019-05-25T07:40:45.366Z,6.85
2019-05-25T07:43:13.610Z,7.22
2019-05-25T07:45:42.369Z,7.10
2019-05-25T07:48:10.587Z,8.20
2019-05-25T07:50:38.828Z,7.78
2019-05-25T07:53:07.062Z,7.78
2019-05-25T07:55:35.296Z,7.90
2019-05-25T07:58:16.754Z,8.28
2019-05-25T08:00:33.487Z,7.75
2019-05-25T08:03:01.712Z,8.00
2019-05-25T08:05:29.997Z,7.22
2019-05-25T08:07:58.252Z,6.58
2019-05-25T08:10:26.602Z,7.08
2019-05-25T08:12:54.819Z,6.80
2019-05-25T08:15:23.131Z,7.92
2019-05-25T08:17:51.416Z,7.08
2019-05-25T08:20:19.713Z,7.67
2019-05-25T08:22:47.927Z,7.30
2019-05-25T08:25:16.321Z,6.62
2019-05-25T08:27:44.561Z,6.87
2019-05-25T08:30:12.935Z,7.17
2019-05-25T08:32:41.324Z,8.53
2019-05-25T08:35:09.685Z,9.13
2019-05-25T08:37:38.188Z,7.80
2019-05-25T08:40:07.297Z,7.35
2019-05-25T08:42:35.516Z,7.10
2019-05-25T08:45:05.233Z,7.25
2019-05-25T08:47:33.445Z,8.10
2019-05-25T08:50:01.678Z,7.75
2019-05-25T08:52:29.984Z,7.83
2019-05-25T08:54:58.209Z,7.30
2019-05-25T08:57:26.597Z,7.70
2019-05-25T08:59:54.814Z,8.05
2019-05-25T09:02:23.037Z,8.55
2019-05-25T09:04:51.269Z,7.25
2019-05-25T09:07:19.480Z,7.47
2019-05-25T09:09:47.717Z,8.28
2019-05-25T09:12:15.943Z,7.58
2019-05-25T09:14:44.176Z,7.37
2019-05-25T09:17:12.396Z,6.40
2019-05-25T09:19:40.782Z,6.58
2019-05-25T09:22:08.994Z,7.90
2019-05-25T09:24:37.203Z,7.58
2019-05-25T09:27:05.477Z,6.90
2019-05-25T09:29:33.740Z,8.05
2019-05-25T09:32:02.053Z,8.15
2019-05-25T09:34:30.267Z,7.37
2019-05-25T09:36:58.570Z,7.97
2019-05-25T09:39:26.787Z,6.92
2019-05-25T09:41:55.144Z,7.50
2019-05-25T09:44:23.360Z,7.55
2019-05-25T09:46:51.607Z,7.35
2019-05-25T09:49:19.826Z,6.83
2019-05-25T09:51:48.739Z,8.33
2019-05-25T09:54:17.156Z,7.53
2019-05-25T09:56:45.360Z,6.78
2019-05-25T09:59:20.008Z,7.10
2019-05-25T10:01:43.513Z,7.17
2019-05-25T10:04:11.829Z,6.53
2019-05-25T10:06:40.044Z,7.03
2019-05-25T10:09:08.572Z,7.58
2019-05-25T10:11:36.797Z,7.53
2019-05-25T10:14:05.188Z,6.70
2019-05-25T10:16:33.418Z,6.27
2019-05-25T10:19:01.633Z,8.10
2019-05-25T10:21:29.880Z,7.30
2019-05-25T10:23:58.207Z,7.33
2019-05-25T10:26:26.449Z,6.83
2019-05-25T10:28:54.749Z,7.40
2019-05-25T10:31:23.057Z,7.10
2019-05-25T10:33:51.325Z,7.40
2019-05-25T10:36:19.576Z,7.43
2019-05-25T10:38:47.810Z,8.10
2019-05-25T10:41:16.024Z,8.10
2019-05-25T10:43:44.275Z,8.33
2019-05-25T10:46:12.490Z,8.67
2019-05-25T10:48:40.860Z,8.00
2019-05-25T10:51:10.041Z,8.60
2019-05-25T10:53:38.255Z,7.53
2019-05-25T10:56:06.483Z,8.13
2019-05-25T10:58:34.731Z,9.00
2019-05-25T11:01:02.947Z,8.67
2019-05-25T11:03:31.179Z,8.53
2019-05-25T11:05:59.488Z,7.40
2019-05-25T11:08:28.039Z,4.20
2019-05-25T11:10:56.271Z,3.97
2019-05-25T11:13:24.492Z,3.73
2019-05-25T11:15:52.728Z,4.00
2019-05-25T11:18:20.953Z,3.10
2019-05-25T11:20:49.204Z,2.90
2019-05-25T11:23:17.425Z,3.17
2019-05-25T11:25:45.640Z,3.80
2019-05-25T11:28:13.882Z,3.55
2019-05-25T11:30:42.088Z,3.15
2019-05-25T11:33:10.340Z,2.90
2019-05-25T11:35:38.539Z,3.25
2019-05-25T11:38:06.782Z,3.00
2019-05-25T11:40:34.992Z,3.00
2019-05-25T11:43:03.448Z,2.98
2019-05-25T11:45:31.675Z,3.40
2019-05-25T11:47:59.985Z,4.35
2019-05-25T11:50:28.284Z,4.00
2019-05-25T11:52:56.513Z,3.58
2019-05-25T11:55:24.825Z,3.17
2019-05-25T11:57:53.366Z,4.08
2019-05-25T12:00:25.269Z,3.87
2019-05-25T12:02:53.263Z,4.80
2019-05-25T12:05:21.611Z,4.62
2019-05-25T12:07:49.836Z,5.10
2019-05-25T12:10:18.072Z,4.90
2019-05-25T12:12:46.449Z,6.35
2019-05-25T12:15:15.031Z,6.17
2019-05-25T12:17:43.278Z,6.00
2019-05-25T12:20:13.212Z,5.60
2019-05-25T12:22:41.469Z,7.28
2019-05-25T12:25:09.822Z,6.87
2019-05-25T12:27:38.040Z,6.75
2019-05-25T12:30:07.051Z,6.42
2019-05-25T12:32:35.300Z,6.78
2019-05-25T12:35:04.904Z,6.22
2019-05-25T12:37:33.128Z,5.80
2019-05-25T12:40:01.376Z,6.28
2019-05-25T12:42:30.768Z,6.17
2019-05-25T12:44:59.201Z,6.15
2019-05-25T12:47:27.481Z,6.03
2019-05-25T12:49:55.773Z,5.92
2019-05-25T12:52:24.015Z,6.50
2019-05-25T12:54:52.232Z,6.20
2019-05-25T12:57:20.549Z,6.30
2019-05-25T12:59:48.763Z,5.83
2019-05-25T13:02:17.075Z,6.17
2019-05-25T13:04:45.304Z,6.60
2019-05-25T13:07:13.545Z,6.45
2019-05-25T13:09:41.772Z,7.03
2019-05-25T13:12:10.102Z,6.37
2019-05-25T13:14:38.322Z,6.42
2019-05-25T13:17:06.559Z,6.03
2019-05-25T13:19:34.798Z,5.25
2019-05-25T13:22:03.020Z,4.87
2019-05-25T13:24:31.268Z,4.60
2019-05-25T13:26:59.937Z,5.22
2019-05-25T13:29:28.157Z,5.75
2019-05-25T13:31:56.416Z,4.75
2019-05-25T13:34:24.623Z,5.45
2019-05-25T13:36:52.964Z,5.65
2019-05-25T13:39:21.179Z,6.17
2019-05-25T13:41:49.401Z,5.45
2019-05-25T13:44:17.636Z,5.40
2019-05-25T13:46:45.854Z,5.35
2019-05-25T13:49:14.369Z,5.75
2019-05-25T13:51:42.592Z,5.58
2019-05-25T13:54:10.816Z,5.73
2019-05-25T13:56:39.052Z,5.50
2019-05-25T13:59:08.228Z,5.90
2019-05-25T14:01:36.487Z,6.17
2019-05-25T14:04:04.769Z,6.30
2019-05-25T14:06:32.990Z,5.83
2019-05-25T14:09:01.231Z,6.43
2019-05-25T14:11:29.447Z,6.43
2019-05-25T14:13:57.699Z,6.33
2019-05-25T14:16:25.931Z,6.70
2019-05-25T14:18:54.174Z,5.87
2019-05-25T14:21:22.384Z,5.43
2019-05-25T14:23:50.740Z,4.77
2019-05-25T14:26:19.001Z,5.53
2019-05-25T14:28:47.232Z,6.27
2019-05-25T14:31:15.488Z,6.07
2019-05-25T14:33:43.708Z,6.63
2019-05-25T14:36:11.957Z,5.90
2019-05-25T14:38:40.171Z,6.23
2019-05-25T14:41:08.406Z,6.27
2019-05-25T14:43:36.646Z,6.83
2019-05-25T14:46:04.860Z,7.50
2019-05-25T14:48:33.197Z,6.73
2019-05-25T14:51:01.836Z,7.90
2019-05-25T14:53:30.058Z,7.43
2019-05-25T14:55:58.283Z,7.77
2019-05-25T14:58:26.507Z,6.37
2019-05-25T15:00:54.726Z,7.80
2019-05-25T15:03:22.954Z,8.73
2019-05-25T15:05:51.201Z,11.93
2019-05-25T15:08:25.291Z,10.00
2019-05-25T15:10:53.972Z,8.90
2019-05-25T15:13:22.271Z,9.53
2019-05-25T15:15:50.490Z,11.80
2019-05-25T15:18:18.739Z,12.23
2019-05-25T15:20:46.964Z,12.57
2019-05-25T15:23:15.300Z,11.73
2019-05-25T15:25:43.549Z,12.57
2019-05-25T15:28:11.797Z,12.93
2019-05-25T15:30:40.023Z,13.43
2019-05-25T15:33:08.416Z,11.30
2019-05-25T15:35:36.699Z,9.93
2019-05-25T15:38:04.994Z,11.20
2019-05-25T15:40:33.241Z,11.70
2019-05-25T15:43:01.464Z,12.17
2019-05-25T15:45:29.704Z,11.50
2019-05-25T15:47:58.091Z,12.40
2019-05-25T15:50:28.003Z,10.53
2019-05-25T15:52:56.901Z,11.03
2019-05-25T15:55:25.431Z,10.20
2019-05-25T15:57:53.675Z,10.17
2019-05-25T16:00:23.427Z,9.53
2019-05-25T16:02:51.669Z,8.50
2019-05-25T16:05:20.187Z,8.33
2019-05-25T16:07:49.988Z,7.23
2019-05-25T16:10:18.199Z,8.20
2019-05-25T16:12:46.466Z,7.73
2019-05-25T16:15:16.336Z,9.43
2019-05-25T16:17:45.805Z,11.87
2019-05-25T16:20:33.409Z,7.87
2019-05-25T16:23:01.645Z,8.47
2019-05-25T16:25:29.884Z,6.20
2019-05-25T16:27:58.169Z,7.27
2019-05-25T16:30:26.632Z,6.60
2019-05-25T16:33:12.951Z,5.00
2019-05-25T16:35:24.897Z,5.33
2019-05-25T16:37:53.374Z,4.87
2019-05-25T16:40:21.815Z,5.50
2019-05-25T16:42:50.053Z,4.80
2019-05-25T16:45:18.946Z,4.87
2019-05-25T16:47:47.327Z,4.87
2019-05-25T16:50:15.734Z,4.87
2019-05-25T16:52:56.953Z,6.33
2019-05-25T16:55:26.705Z,4.20
2019-05-25T16:57:55.107Z,5.03
2019-05-25T17:00:27.081Z,4.43
2019-05-25T17:02:55.948Z,3.70
2019-05-25T17:05:24.201Z,3.73
2019-05-25T17:07:52.494Z,4.00
2019-05-25T17:10:20.794Z,4.17
2019-05-25T17:12:49.011Z,4.20
2019-05-25T17:15:17.989Z,3.10
2019-05-25T17:17:46.220Z,2.97
2019-05-25T17:20:14.735Z,3.50
2019-05-25T17:22:43.786Z,3.70
2019-05-25T17:25:12.957Z,4.47
2019-05-25T17:27:41.528Z,2.97
2019-05-25T17:30:10.287Z,2.80
2019-05-25T17:32:38.587Z,2.80
2019-05-25T17:35:07.101Z,3.00
2019-05-25T17:37:35.336Z,2.97
2019-05-25T17:40:05.084Z,2.97
2019-05-25T17:42:33.351Z,3.10
2019-05-25T17:45:01.640Z,3.23
2019-05-25T17:47:29.913Z,3.50
2019-05-25T17:49:58.158Z,4.57
2019-05-25T17:52:26.441Z,7.33
2019-05-25T17:54:54.988Z,4.33
2019-05-25T17:57:23.335Z,4.60
2019-05-25T17:59:51.563Z,4.77
2019-05-25T18:02:19.886Z,4.40
2019-05-25T18:04:48.309Z,4.70
2019-05-25T18:07:16.748Z,5.33
2019-05-25T18:09:44.955Z,5.07
2019-05-25T18:12:13.263Z,5.17
2019-05-25T18:14:41.544Z,4.57
2019-05-25T18:17:10.809Z,5.30
2019-05-25T18:19:39.152Z,5.10
2019-05-25T18:22:07.364Z,5.33
2019-05-25T18:24:35.593Z,5.03
2019-05-25T18:27:03.900Z,4.10
2019-05-25T18:29:32.184Z,4.83
2019-05-25T18:32:00.609Z,5.80
2019-05-25T18:34:29.067Z,5.43
2019-05-25T18:36:57.606Z,6.17
2019-05-25T18:39:25.892Z,5.73
2019-05-25T18:41:57.156Z,6.00
2019-05-25T18:44:26.354Z,6.33
2019-05-25T18:46:54.658Z,6.57
2019-05-25T18:49:22.895Z,6.23
2019-05-25T18:51:51.189Z,7.07
2019-05-25T18:54:22.134Z,7.07
2019-05-25T18:56:50.357Z,7.77
2019-05-25T18:59:18.628Z,8.30
2019-05-25T19:01:46.868Z,7.63
2019-05-25T19:04:15.084Z,9.20
2019-05-25T19:06:43.424Z,8.23
2019-05-25T19:09:11.689Z,7.97
2019-05-25T19:11:40.021Z,7.70
2019-05-25T19:14:08.259Z,8.73
2019-05-25T19:16:36.473Z,8.63
2019-05-25T19:19:04.865Z,8.20
2019-05-25T19:21:33.165Z,9.00
2019-05-25T19:24:01.377Z,8.80
2019-05-25T19:26:29.620Z,8.80
2019-05-25T19:28:57.836Z,8.73
2019-05-25T19:31:26.075Z,8.60
2019-05-25T19:33:54.309Z,8.73
2019-05-25T19:36:22.930Z,8.07
2019-05-25T19:38:51.179Z,7.83
2019-05-25T19:41:19.400Z,9.07
2019-05-25T19:43:47.725Z,7.53
2019-05-25T19:46:15.971Z,8.63
2019-05-25T19:48:44.210Z,9.17
2019-05-25T19:51:12.420Z,8.43
2019-05-25T19:53:40.998Z,9.67
2019-05-25T19:56:09.228Z,9.13
2019-05-25T19:58:37.524Z,9.53
2019-05-25T20:01:05.753Z,9.90
2019-05-25T20:03:34.161Z,8.70
2019-05-25T20:06:02.451Z,9.97
2019-05-25T20:08:30.697Z,9.40
2019-05-25T20:10:58.919Z,8.80
2019-05-25T20:13:27.252Z,9.83
2019-05-25T20:15:55.480Z,10.23
2019-05-25T20:18:23.700Z,9.60
2019-05-25T20:20:51.944Z,10.47
2019-05-25T20:23:20.260Z,12.40
2019-05-25T20:25:48.559Z,11.83
2019-05-25T20:28:16.771Z,12.83
2019-05-25T20:30:44.987Z,12.37
2019-05-25T20:33:13.256Z,12.47
2019-05-25T20:35:41.485Z,12.30
2019-05-25T20:38:09.961Z,12.03
2019-05-25T20:40:38.193Z,11.80
2019-05-25T20:43:06.498Z,12.47
2019-05-25T20:45:34.809Z,10.47
2019-05-25T20:48:03.043Z,10.27
2019-05-25T20:50:31.387Z,10.03
2019-05-25T20:52:59.603Z,10.93
2019-05-25T20:55:27.820Z,8.97
2019-05-25T20:57:56.143Z,12.40
2019-05-25T21:00:24.611Z,9.87
2019-05-25T21:03:05.263Z,9.13
2019-05-25T21:05:22.983Z,9.03
2019-05-25T21:07:51.251Z,8.33
2019-05-25T21:10:22.105Z,9.13
2019-05-25T21:12:50.323Z,7.83
2019-05-25T21:15:18.599Z,7.67
2019-05-25T21:17:46.875Z,7.97
2019-05-25T21:20:15.372Z,8.33
2019-05-25T21:22:46.909Z,7.90
2019-05-25T21:25:16.660Z,8.10
2019-05-25T21:27:47.972Z,8.17
2019-05-25T21:30:16.355Z,8.87
2019-05-25T21:32:44.567Z,8.70
2019-05-25T21:35:12.989Z,8.23
2019-05-25T21:37:41.232Z,9.23
2019-05-25T21:40:09.656Z,8.70
2019-05-25T21:42:37.903Z,10.40
2019-05-25T21:45:06.789Z,11.87
2019-05-25T21:47:35.023Z,9.43
2019-05-25T21:50:03.609Z,10.47
2019-05-25T21:52:31.861Z,10.93
2019-05-25T21:55:00.168Z,11.80
2019-05-25T21:57:28.472Z,10.53
2019-05-25T21:59:56.706Z,10.03
2019-05-25T22:02:25.045Z,11.67
2019-05-25T22:04:53.384Z,11.53
2019-05-25T22:07:21.612Z,12.13
2019-05-25T22:09:49.855Z,12.20
2019-05-25T22:12:18.095Z,13.07
2019-05-25T22:14:46.407Z,11.60
2019-05-25T22:17:14.734Z,11.67
2019-05-25T22:19:43.257Z,11.27
2019-05-25T22:22:11.508Z,12.20
2019-05-25T22:24:41.763Z,10.90
2019-05-25T22:27:10.486Z,12.67
2019-05-25T22:29:39.180Z,12.30
2019-05-25T22:32:08.156Z,12.63
2019-05-25T22:34:36.701Z,12.37
2019-05-25T22:37:12.776Z,12.47
2019-05-25T22:40:00.418Z,12.17
2019-05-25T22:42:28.641Z,12.67
2019-05-25T22:44:56.904Z,14.07
2019-05-25T22:47:25.147Z,13.60
2019-05-25T22:49:53.352Z,13.50
2019-05-25T22:52:21.707Z,14.17
2019-05-25T22:54:50.179Z,13.97
2019-05-25T22:57:18.668Z,15.07
2019-05-25T22:59:46.936Z,13.80
2019-05-25T23:02:15.262Z,15.97
2019-05-25T23:04:43.578Z,15.70
2019-05-25T23:07:11.808Z,15.47
2019-05-25T23:09:40.005Z,15.50
2019-05-25T23:12:08.206Z,16.13
2019-05-25T23:14:36.690Z,15.53
2019-05-25T23:17:04.906Z,15.37
2019-05-25T23:19:33.090Z,14.60
2019-05-25T23:22:01.283Z,14.47
2019-05-25T23:24:29.557Z,14.53
2019-05-25T23:26:57.867Z,15.57
2019-05-25T23:29:26.057Z,16.50
2019-05-25T23:31:54.266Z,16.57
2019-05-25T23:34:22.466Z,16.37
2019-05-25T23:36:50.650Z,17.40
2019-05-25T23:39:18.855Z,16.77
2019-05-25T23:41:47.043Z,17.17
2019-05-25T23:44:15.255Z,16.20
2019-05-25T23:46:43.455Z,15.80
2019-05-25T23:49:11.654Z,17.47
2019-05-25T23:51:39.864Z,14.93
2019-05-25T23:54:08.050Z,16.03
2019-05-25T23:56:36.264Z,17.53
2019-05-25T23:59:04.606Z,22.13
